Time;durP1;ratioP1;P1;durP2;ratioP2;P2;SDS_P1;SDS_P2;PMS_P1;PMS_P2;Temp;Humidity;BMP_temperature;BMP_pressure;BME280_temperature;BME280_humidity;BME280_pressure;Samples;Min_cycle;Max_cycle;Signal;HPM_P1;HPM_P2
2022/09/16 00:00:43;;;;;;;4.20;0.95;;;13.30;81.40;;;;;;5115504;28;20112;-39
2022/09/16 00:03:10;;;;;;;4.68;1.30;;;13.40;81.40;;;;;;5113755;28;20251;-39
2022/09/16 00:05:41;;;;;;;2.22;0.73;;;13.30;81.40;;;;;;5114326;28;20524;-39
2022/09/16 00:08:07;;;;;;;2.35;1.10;;;13.30;81.70;;;;;;5115459;28;20020;-38
2022/09/16 00:10:34;;;;;;;3.90;1.35;;;13.30;81.80;;;;;;5114060;28;20032;-39
2022/09/16 00:13:00;;;;;;;3.10;1.05;;;13.30;81.90;;;;;;5115281;28;20036;-38
2022/09/16 00:15:25;;;;;;;2.22;1.38;;;13.30;81.70;;;;;;5115322;28;20052;-38
2022/09/16 00:17:51;;;;;;;1.42;0.90;;;13.30;81.60;;;;;;5115148;28;20027;-38
2022/09/16 00:20:17;;;;;;;3.03;1.15;;;13.30;81.80;;;;;;5115129;28;20034;-39
2022/09/16 00:22:42;;;;;;;5.40;1.10;;;13.30;82.00;;;;;;5115253;28;20028;-38
2022/09/16 00:25:08;;;;;;;4.60;1.30;;;13.20;82.20;;;;;;5115323;28;20526;-39
2022/09/16 00:27:34;;;;;;;6.63;1.58;;;13.20;82.30;;;;;;5113754;28;20107;-39
2022/09/16 00:30:00;;;;;;;3.58;1.30;;;13.20;82.20;;;;;;5114975;28;20355;-40
2022/09/16 00:32:25;;;;;;;7.18;0.95;;;13.20;82.60;;;;;;5115237;28;20424;-37
2022/09/16 00:34:51;;;;;;;2.38;1.13;;;13.20;82.70;;;;;;5115189;28;20499;-38
2022/09/16 00:37:17;;;;;;;4.63;1.67;;;13.20;82.80;;;;;;5114943;28;20035;-40
2022/09/16 00:39:43;;;;;;;4.47;1.52;;;13.20;82.70;;;;;;5114815;28;20489;-40
2022/09/16 00:42:10;;;;;;;5.55;1.67;;;13.20;82.90;;;;;;5113401;28;20027;-38
2022/09/16 00:44:58;;;;;;;5.32;1.08;;;13.20;82.70;;;;;;5114752;28;20127;-45
2022/09/16 00:47:40;;;;;;;6.88;1.20;;;13.20;82.70;;;;;;5114790;28;20019;-38
2022/09/16 00:50:20;;;;;;;6.70;1.35;;;13.10;82.90;;;;;;5114933;28;20049;-38
2022/09/16 00:52:46;;;;;;;;;;;13.10;83.00;;;;;;5115199;28;20031;-39
2022/09/16 00:55:17;;;;;;;3.63;0.77;;;13.00;83.20;;;;;;5114435;28;20407;-38
2022/09/16 00:57:44;;;;;;;5.90;1.42;;;13.10;83.10;;;;;;5114691;28;20023;-38
2022/09/16 01:00:12;;;;;;;3.35;1.10;;;13.00;83.00;;;;;;5114230;28;20479;-38
2022/09/16 01:02:39;;;;;;;4.35;0.60;;;13.10;83.20;;;;;;5114107;28;20024;-38
2022/09/16 01:05:10;;;;;;;3.65;1.02;;;13.10;83.00;;;;;;5113877;28;20044;-37
2022/09/16 01:07:43;;;;;;;4.68;0.68;;;13.00;83.30;;;;;;5114309;28;20487;-37
2022/09/16 01:10:11;;;;;;;4.00;1.08;;;13.10;83.10;;;;;;5114010;28;20145;-38
2022/09/16 01:12:38;;;;;;;3.58;1.35;;;13.10;83.00;;;;;;5114027;28;20471;-38
2022/09/16 01:15:05;;;;;;;1.80;1.05;;;13.10;83.30;;;;;;5113794;28;20019;-38
2022/09/16 01:17:58;;;;;;;2.90;0.93;;;13.10;83.20;;;;;;5114443;28;20383;-38
2022/09/16 01:20:49;;;;;;;2.97;1.77;;;13.10;83.30;;;;;;5114296;28;20478;-39
2022/09/16 01:23:34;;;;;;;3.85;1.00;;;13.10;83.40;;;;;;5112718;28;20095;-39
2022/09/16 01:26:21;;;;;;;2.03;0.90;;;13.10;83.40;;;;;;5113847;28;20027;-38
2022/09/16 01:29:01;;;;;;;2.38;1.00;;;13.00;83.40;;;;;;5113882;28;20027;-38
2022/09/16 01:31:38;;;;;;;4.82;0.95;;;13.00;83.70;;;;;;5113817;28;20198;-37
2022/09/16 01:34:09;;;;;;;3.38;1.00;;;13.00;83.60;;;;;;5113697;28;20036;-38
2022/09/16 01:36:49;;;;;;;4.68;0.80;;;13.10;83.50;;;;;;5113698;28;20091;-38
2022/09/16 01:39:38;;;;;;;6.00;1.95;;;13.00;83.50;;;;;;5114081;28;20020;-37
2022/09/16 01:42:04;;;;;;;2.42;1.38;;;13.00;83.80;;;;;;5113871;28;20372;-38
2022/09/16 01:44:30;;;;;;;7.45;1.25;;;13.00;83.90;;;;;;5113527;28;20027;-38
2022/09/16 01:47:24;;;;;;;16.23;3.08;;;13.00;84.10;;;;;;5113579;28;20030;-39
2022/09/16 01:50:13;;;;;;;8.23;2.30;;;13.00;84.20;;;;;;5106121;28;20031;-38
2022/09/16 01:52:58;;;;;;;6.65;2.53;;;13.00;84.10;;;;;;5105902;28;20116;-38
2022/09/16 01:55:46;;;;;;;6.32;1.67;;;12.90;84.40;;;;;;5113989;28;20034;-38
2022/09/16 01:58:32;;;;;;;7.57;1.27;;;12.90;84.40;;;;;;5113481;28;20476;-38
2022/09/16 02:01:11;;;;;;;8.13;1.50;;;13.00;84.50;;;;;;5113689;28;20032;-39
2022/09/16 02:03:41;;;;;;;1.88;1.20;;;12.90;84.60;;;;;;5113333;28;20040;-38
2022/09/16 02:06:17;;;;;;;4.45;0.95;;;13.00;84.30;;;;;;5112242;28;20352;-38
2022/09/16 02:08:52;;;;;;;2.47;1.13;;;13.00;84.60;;;;;;5113512;28;20135;-39
2022/09/16 02:11:19;;;;;;;8.05;1.98;;;12.90;84.60;;;;;;5113213;28;20035;-38
2022/09/16 02:13:50;;;;;;;8.23;1.88;;;12.90;84.80;;;;;;5113425;28;20034;-39
2022/09/16 02:16:31;;;;;;;4.78;2.05;;;13.00;84.70;;;;;;5113160;28;20024;-38
2022/09/16 02:19:05;;;;;;;3.20;1.27;;;13.00;84.30;;;;;;5113000;28;20039;-38
2022/09/16 02:21:35;;;;;;;5.75;1.50;;;13.00;84.40;;;;;;5113098;28;20046;-38
2022/09/16 02:24:06;;;;;;;3.45;1.45;;;13.10;84.40;;;;;;5113275;28;20070;-39
2022/09/16 02:26:39;;;;;;;6.07;1.85;;;13.20;84.10;;;;;;5115541;28;20024;-38
2022/09/16 02:29:14;;;;;;;4.72;1.42;;;13.10;84.10;;;;;;5117348;27;20458;-38
2022/09/16 02:31:43;;;;;;;7.50;1.88;;;13.00;84.40;;;;;;5117079;28;20026;-38
2022/09/16 02:34:14;;;;;;;7.38;1.88;;;13.00;84.40;;;;;;5116060;28;20110;-37
2022/09/16 02:36:44;;;;;;;5.93;2.30;;;13.00;84.30;;;;;;5115735;28;20085;-38
2022/09/16 02:39:13;;;;;;;4.47;1.40;;;13.00;84.00;;;;;;5117180;28;20031;-38
2022/09/16 02:41:40;;;;;;;4.80;1.35;;;13.10;84.00;;;;;;5115360;28;20031;-38
2022/09/16 02:44:07;;;;;;;14.70;1.92;;;12.90;84.20;;;;;;5117030;28;20155;-38
2022/09/16 02:46:53;;;;;;;7.20;2.15;;;12.90;84.30;;;;;;5116734;28;20114;-38
2022/09/16 02:49:36;;;;;;;8.80;1.33;;;13.00;84.10;;;;;;5116636;28;20027;-38
2022/09/16 02:52:02;;;;;;;11.00;1.60;;;13.00;83.90;;;;;;5117037;28;20077;-38
2022/09/16 02:54:45;;;;;;;5.93;1.33;;;12.90;84.10;;;;;;5117047;28;20417;-38
2022/09/16 02:57:11;;;;;;;4.40;1.13;;;12.90;84.10;;;;;;5116776;28;20532;-38
2022/09/16 02:59:38;;;;;;;8.45;2.13;;;12.90;84.30;;;;;;5116455;28;20031;-38
2022/09/16 03:02:04;;;;;;;5.32;1.63;;;12.80;84.30;;;;;;5116927;28;20028;-38
2022/09/16 03:04:30;;;;;;;5.35;1.52;;;12.90;84.40;;;;;;5116438;28;20042;-39
2022/09/16 03:06:55;;;;;;;6.43;1.77;;;12.80;84.50;;;;;;5116655;28;20027;-38
2022/09/16 03:09:23;;;;;;;7.43;1.55;;;12.80;84.30;;;;;;5116574;28;20016;-38
2022/09/16 03:11:59;;;;;;;5.38;1.55;;;12.80;84.70;;;;;;5117180;28;20455;-39
2022/09/16 03:14:46;;;;;;;9.43;1.65;;;12.80;84.90;;;;;;5116796;28;20084;-38
2022/09/16 03:17:15;;;;;;;6.13;1.80;;;12.80;84.70;;;;;;5116518;28;20028;-38
2022/09/16 03:19:59;;;;;;;7.93;1.40;;;12.80;84.90;;;;;;5117108;28;20487;-38
2022/09/16 03:22:57;;;;;;;3.67;1.73;;;12.80;84.70;;;;;;5116503;28;20034;-38
2022/09/16 03:25:40;;;;;;;6.07;1.52;;;12.80;84.50;;;;;;5093422;28;20384;-38
2022/09/16 03:28:23;;;;;;;4.25;1.10;;;12.80;84.50;;;;;;5115312;28;20024;-38
2022/09/16 03:30:54;;;;;;;7.22;1.92;;;12.70;84.80;;;;;;5116974;28;20019;-40
2022/09/16 03:33:36;;;;;;;6.88;1.42;;;12.80;84.90;;;;;;5115094;28;20418;-38
2022/09/16 03:36:05;;;;;;;9.23;1.60;;;12.80;84.80;;;;;;5116176;28;20024;-38
2022/09/16 03:38:34;;;;;;;9.97;2.50;;;12.80;84.60;;;;;;5117432;28;20027;-38
2022/09/16 03:41:02;;;;;;;5.57;1.27;;;12.80;84.60;;;;;;5117000;28;20126;-38
2022/09/16 03:43:27;;;;;;;3.88;1.23;;;12.70;84.60;;;;;;5116045;28;20076;-38
2022/09/16 03:45:53;;;;;;;1.90;1.15;;;12.70;84.70;;;;;;5116958;28;20106;-38
2022/09/16 03:48:19;;;;;;;12.20;1.70;;;12.70;84.80;;;;;;5115660;28;20019;-38
2022/09/16 03:50:44;;;;;;;6.25;1.88;;;12.70;84.60;;;;;;5116803;28;20023;-38
2022/09/16 03:53:10;;;;;;;2.10;1.10;;;12.60;84.70;;;;;;5116398;28;20076;-38
2022/09/16 03:55:36;;;;;;;5.65;2.83;;;12.70;84.70;;;;;;5116285;28;20476;-39
2022/09/16 03:58:01;;;;;;;2.35;1.00;;;12.70;84.50;;;;;;5116208;28;20020;-39
2022/09/16 04:00:30;;;;;;;9.02;2.58;;;12.70;84.60;;;;;;5115827;28;20028;-39
2022/09/16 04:02:55;;;;;;;2.83;1.10;;;12.80;84.50;;;;;;5115816;28;20044;-39
2022/09/16 04:05:21;;;;;;;8.77;1.98;;;12.70;84.40;;;;;;5115332;28;20495;-38
2022/09/16 04:07:50;;;;;;;11.40;1.58;;;12.80;84.10;;;;;;5115657;28;20023;-38
2022/09/16 04:10:16;;;;;;;9.88;1.73;;;12.80;84.00;;;;;;5115518;28;20118;-38
2022/09/16 04:12:42;;;;;;;12.52;1.55;;;12.80;84.20;;;;;;5115472;28;20056;-38
2022/09/16 04:15:08;;;;;;;1.48;1.20;;;12.80;84.30;;;;;;5115380;28;20023;-38
2022/09/16 04:17:34;;;;;;;3.45;1.60;;;12.80;84.00;;;;;;5115372;28;20028;-38
2022/09/16 04:19:59;;;;;;;10.23;2.15;;;12.80;84.20;;;;;;5115275;28;20519;-38
2022/09/16 04:22:29;;;;;;;11.82;2.85;;;12.80;84.00;;;;;;5115621;28;20099;-38
2022/09/16 04:24:55;;;;;;;4.70;1.38;;;12.70;84.20;;;;;;5115602;28;20036;-40
2022/09/16 04:27:21;;;;;;;6.90;1.50;;;12.70;84.10;;;;;;5115366;28;20020;-38
2022/09/16 04:29:47;;;;;;;5.90;1.50;;;12.80;84.00;;;;;;5115605;28;20026;-38
2022/09/16 04:32:13;;;;;;;6.50;1.67;;;12.90;83.40;;;;;;5115756;28;20376;-38
2022/09/16 04:34:39;;;;;;;6.68;1.52;;;12.80;83.70;;;;;;5115258;28;20081;-38
2022/09/16 04:37:04;;;;;;;5.38;1.45;;;12.80;83.70;;;;;;5115063;28;20031;-39
2022/09/16 04:39:30;;;;;;;4.53;1.48;;;12.80;83.60;;;;;;5115100;28;20034;-42
2022/09/16 04:41:56;;;;;;;4.03;1.20;;;12.80;83.50;;;;;;5115281;28;20024;-38
2022/09/16 04:44:21;;;;;;;6.18;1.15;;;12.80;83.60;;;;;;5115022;28;20035;-39
2022/09/16 04:46:47;;;;;;;4.28;1.30;;;12.60;84.10;;;;;;5115021;28;20047;-38
2022/09/16 04:49:13;;;;;;;10.60;3.30;;;12.50;84.60;;;;;;5114458;28;20023;-37
2022/09/16 04:51:38;;;;;;;8.73;1.52;;;12.50;84.80;;;;;;5115235;28;20031;-39
2022/09/16 18:03:43;;;;;;;5.85;1.25;;;11.00;88.80;;;;;;5152371;27;20370;-38
2022/09/16 18:06:18;;;;;;;2.45;1.02;;;11.10;88.80;;;;;;5151722;27;20023;-38
2022/09/16 18:08:44;;;;;;;5.50;1.27;;;11.20;88.60;;;;;;5152279;27;20336;-39
2022/09/16 18:11:12;;;;;;;12.13;2.17;;;11.20;88.30;;;;;;5151772;27;20383;-38
2022/09/16 18:13:38;;;;;;;6.50;1.13;;;11.30;88.10;;;;;;5151657;27;20019;-39
2022/09/16 18:16:15;;;;;;;8.65;1.70;;;11.30;88.10;;;;;;5151812;27;20442;-40
2022/09/16 18:18:42;;;;;;;3.17;1.20;;;11.30;88.20;;;;;;5151408;27;20110;-39
2022/09/16 18:21:13;;;;;;;5.95;1.70;;;11.30;88.10;;;;;;5151327;27;20027;-38
2022/09/16 18:23:39;;;;;;;1.33;1.08;;;11.30;88.10;;;;;;5151504;27;20023;-38
2022/09/16 18:26:10;;;;;;;10.23;1.50;;;11.30;88.10;;;;;;5151192;27;20027;-38
2022/09/16 18:28:44;;;;;;;5.25;2.10;;;11.30;88.40;;;;;;5151556;27;20075;-40
2022/09/16 18:31:18;;;;;;;11.25;2.03;;;11.30;88.30;;;;;;5151453;27;20038;-38
2022/09/16 18:33:44;;;;;;;12.43;2.38;;;11.30;88.50;;;;;;5151417;27;20019;-40
2022/09/16 18:36:12;;;;;;;12.52;1.95;;;11.30;88.40;;;;;;5151564;27;20408;-38
2022/09/16 18:38:38;;;;;;;6.82;1.33;;;11.40;88.40;;;;;;5151113;27;20019;-38
2022/09/16 18:41:15;;;;;;;8.23;2.17;;;11.40;88.30;;;;;;5150985;27;20584;-39
2022/09/16 18:43:43;;;;;;;5.95;1.92;;;11.40;88.40;;;;;;5150905;27;20148;-38
2022/09/16 18:46:13;;;;;;;9.18;2.17;;;11.40;88.30;;;;;;5150916;27;20071;-39
2022/09/16 18:48:42;;;;;;;5.90;1.80;;;11.50;88.20;;;;;;5150879;27;20031;-38
2022/09/16 18:51:28;;;;;;;9.77;3.13;;;11.50;88.10;;;;;;5150813;27;20023;-38
2022/09/16 18:53:56;;;;;;;18.63;2.30;;;11.60;88.10;;;;;;5151134;27;20107;-47
2022/09/16 18:56:24;;;;;;;7.18;2.83;;;11.70;87.70;;;;;;5151058;27;20358;-40
2022/09/16 18:58:51;;;;;;;14.88;2.92;;;11.80;87.40;;;;;;5150932;27;20023;-41
2022/09/16 19:01:28;;;;;;;9.18;2.33;;;11.90;87.20;;;;;;5150649;27;20424;-39
2022/09/16 19:03:57;;;;;;;6.57;1.73;;;12.00;86.80;;;;;;5150902;27;20489;-38
2022/09/16 19:06:26;;;;;;;7.65;1.77;;;12.10;86.60;;;;;;5150342;27;20388;-38
2022/09/16 19:08:51;;;;;;;3.30;1.08;;;12.20;86.30;;;;;;5150455;27;20466;-39
2022/09/16 19:11:17;;;;;;;3.55;1.98;;;12.30;86.00;;;;;;5150503;27;20019;-38
2022/09/16 19:13:43;;;;;;;8.98;2.28;;;12.30;85.80;;;;;;5144326;27;20080;-39
2022/09/16 19:16:11;;;;;;;6.53;2.63;;;12.30;85.80;;;;;;5137452;27;20408;-39
2022/09/16 19:18:37;;;;;;;11.57;2.50;;;12.40;86.30;;;;;;5137683;27;20477;-40
2022/09/16 19:21:03;;;;;;;9.90;2.22;;;12.40;86.10;;;;;;5136568;27;20055;-39
2022/09/16 19:23:29;;;;;;;7.45;1.90;;;12.30;86.10;;;;;;5136818;27;20048;-40
2022/09/16 19:26:01;;;;;;;6.43;1.95;;;12.20;86.30;;;;;;5136795;27;20374;-39
2022/09/16 19:28:26;;;;;;;10.93;1.83;;;12.10;86.60;;;;;;5136726;27;20471;-39
2022/09/16 19:30:53;;;;;;;5.30;1.38;;;12.00;86.70;;;;;;5136167;27;20033;-39
2022/09/16 19:33:19;;;;;;;11.68;2.08;;;11.90;86.90;;;;;;5136177;27;20023;-39
2022/09/16 19:35:45;;;;;;;8.02;2.03;;;11.90;87.30;;;;;;5136720;27;20035;-38
2022/09/16 19:38:11;;;;;;;7.13;1.52;;;11.90;87.10;;;;;;5136430;27;20439;-39
2022/09/16 19:40:37;;;;;;;7.63;1.60;;;12.00;87.00;;;;;;5135859;27;20034;-39
2022/09/16 19:43:03;;;;;;;6.88;1.73;;;12.00;87.00;;;;;;5136116;27;20027;-39
2022/09/16 19:45:28;;;;;;;9.68;2.33;;;12.00;86.70;;;;;;5136197;27;20042;-38
2022/09/16 19:47:54;;;;;;;5.53;1.55;;;12.00;86.70;;;;;;5136458;27;20094;-40
2022/09/16 19:50:20;;;;;;;5.65;1.67;;;11.90;86.90;;;;;;5135959;27;20027;-39
2022/09/16 19:52:45;;;;;;;11.95;1.95;;;11.90;87.50;;;;;;5135879;27;20094;-39
2022/09/16 19:55:11;;;;;;;14.00;2.35;;;11.90;87.90;;;;;;5134704;27;20019;-38
2022/09/16 19:57:37;;;;;;;12.77;1.70;;;11.80;88.40;;;;;;5135627;27;20387;-39
2022/09/16 20:00:04;;;;;;;7.15;1.98;;;11.80;88.30;;;;;;5135782;27;20408;-38
2022/09/16 20:02:33;;;;;;;12.18;1.63;;;11.80;88.30;;;;;;5135509;27;20112;-38
2022/09/16 20:04:58;;;;;;;12.70;1.80;;;11.80;87.90;;;;;;5136215;27;20050;-38
2022/09/16 20:07:24;;;;;;;9.10;2.00;;;12.00;87.40;;;;;;5134453;27;20042;-38
2022/09/16 20:09:50;;;;;;;8.68;2.28;;;12.10;86.80;;;;;;5135621;27;20019;-49
2022/09/16 20:12:15;;;;;;;12.52;1.73;;;12.00;86.20;;;;;;5134310;27;20110;-46
2022/09/16 20:14:41;;;;;;;12.48;2.20;;;12.00;86.00;;;;;;5135619;27;20054;-47
2022/09/16 20:17:07;;;;;;;5.65;2.10;;;12.00;85.50;;;;;;5135774;27;20378;-49
2022/09/16 20:19:32;;;;;;;11.88;3.83;;;12.00;85.80;;;;;;5135769;27;20349;-46
2022/09/16 20:21:58;;;;;;;11.77;1.65;;;12.00;85.70;;;;;;5135543;27;20105;-47
2022/09/16 20:24:24;;;;;;;10.32;2.28;;;11.90;85.40;;;;;;5134030;27;20015;-47
2022/09/16 20:26:52;;;;;;;6.40;1.85;;;11.90;85.70;;;;;;5133207;27;20055;-47
2022/09/16 20:29:19;;;;;;;6.97;2.42;;;11.80;85.90;;;;;;5135440;27;20055;-46
2022/09/16 20:31:49;;;;;;;6.25;1.70;;;11.80;86.20;;;;;;5135671;27;20053;-47
2022/09/16 20:34:15;;;;;;;14.13;2.40;;;11.80;86.30;;;;;;5135610;27;20352;-47
2022/09/16 20:36:42;;;;;;;5.68;1.38;;;11.80;86.50;;;;;;5135355;27;20042;-48
2022/09/16 20:39:09;;;;;;;5.78;2.05;;;11.80;86.50;;;;;;5135251;27;20027;-47
2022/09/16 20:41:37;;;;;;;8.15;2.75;;;11.70;86.90;;;;;;5135282;27;20070;-48
2022/09/16 20:44:03;;;;;;;9.38;1.25;;;11.60;86.90;;;;;;5135334;27;20027;-48
2022/09/16 20:46:35;;;;;;;6.70;3.40;;;11.50;87.20;;;;;;5135464;27;20027;-47
2022/09/16 20:49:05;;;;;;;5.28;1.33;;;11.40;87.90;;;;;;5135323;27;20432;-48
2022/09/16 20:51:32;;;;;;;7.18;1.60;;;11.40;88.20;;;;;;5134965;27;20023;-47
2022/09/16 20:54:04;;;;;;;18.23;1.75;;;11.40;88.20;;;;;;5135296;27;20455;-49
2022/09/16 20:56:31;;;;;;;6.57;1.90;;;11.30;88.10;;;;;;5134967;27;20016;-48
2022/09/16 20:58:58;;;;;;;11.40;1.90;;;11.30;88.40;;;;;;5134856;27;20106;-47
2022/09/16 21:01:26;;;;;;;6.38;1.95;;;11.30;88.30;;;;;;5134409;27;20019;-47
2022/09/16 21:04:04;;;;;;;5.78;2.05;;;11.30;88.20;;;;;;5134833;27;20095;-47
2022/09/16 21:06:40;;;;;;;6.53;1.67;;;11.30;88.30;;;;;;5134871;27;20019;-46
2022/09/16 21:09:09;;;;;;;6.00;2.00;;;11.30;88.10;;;;;;5134879;27;20431;-46
2022/09/16 21:11:35;;;;;;;7.53;1.35;;;11.30;88.20;;;;;;5134616;27;20015;-48
2022/09/16 21:14:05;;;;;;;6.50;1.58;;;11.30;88.10;;;;;;5134621;27;20015;-46
2022/09/16 21:16:31;;;;;;;7.90;2.28;;;11.20;88.00;;;;;;5134704;27;20019;-47
2022/09/16 21:18:59;;;;;;;8.35;2.15;;;11.20;88.20;;;;;;5134476;27;20026;-46
2022/09/16 21:21:27;;;;;;;3.03;1.30;;;11.20;87.80;;;;;;5134594;27;20095;-47
2022/09/16 21:23:57;;;;;;;10.50;1.35;;;11.20;87.90;;;;;;5134234;27;20072;-46
2022/09/16 21:26:27;;;;;;;15.30;3.40;;;11.20;87.90;;;;;;5134178;27;20019;-46
2022/09/16 21:28:56;;;;;;;8.60;1.70;;;11.20;87.60;;;;;;5134662;27;20111;-48
2022/09/16 21:31:24;;;;;;;10.55;1.73;;;11.20;87.50;;;;;;5134167;27;20213;-48
2022/09/16 21:33:52;;;;;;;12.27;1.33;;;11.20;87.20;;;;;;5134168;27;20106;-48
2022/09/16 21:36:20;;;;;;;9.50;2.63;;;11.20;87.40;;;;;;5132682;27;20023;-48
2022/09/16 21:38:46;;;;;;;6.78;1.63;;;11.20;87.20;;;;;;5134505;27;20382;-48
2022/09/16 21:41:14;;;;;;;4.82;1.83;;;11.20;87.60;;;;;;5134176;27;20107;-47
2022/09/16 21:43:44;;;;;;;10.10;2.30;;;11.10;87.60;;;;;;5134021;27;20038;-49
2022/09/16 21:46:13;;;;;;;4.75;2.67;;;11.00;87.90;;;;;;5134342;27;20015;-48
2022/09/16 21:48:41;;;;;;;12.85;2.00;;;11.10;88.00;;;;;;5132665;27;20199;-47
2022/09/16 21:51:11;;;;;;;5.60;1.55;;;11.20;87.70;;;;;;5133959;27;20015;-46
2022/09/16 21:53:41;;;;;;;;;;;11.10;87.70;;;;;;5134645;27;20019;-47
2022/09/16 21:56:11;;;;;;;9.77;1.75;;;11.10;87.70;;;;;;5134132;27;19903;-47
2022/09/16 21:58:37;;;;;;;;;;;11.10;88.00;;;;;;5134620;27;20023;-47
2022/09/16 22:01:05;;;;;;;12.55;2.30;;;11.00;88.10;;;;;;5133888;27;20266;-46
2022/09/16 22:03:30;;;;;;;17.35;4.43;;;11.10;88.20;;;;;;5135633;27;20079;-46
2022/09/16 22:05:59;;;;;;;7.07;1.60;;;11.10;88.10;;;;;;5134366;28;20015;-48
2022/09/16 22:08:25;;;;;;;10.88;1.55;;;11.10;88.10;;;;;;5134918;28;20026;-50
2022/09/16 22:10:50;;;;;;;16.27;2.30;;;11.10;88.10;;;;;;5134376;28;20459;-47
2022/09/16 22:13:16;;;;;;;11.20;2.33;;;11.10;88.00;;;;;;5134161;28;20387;-48
2022/09/16 22:15:49;;;;;;;5.50;1.48;;;11.10;87.90;;;;;;5133925;28;20501;-46
2022/09/16 22:18:15;;;;;;;2.08;1.13;;;11.20;87.70;;;;;;5134463;28;20023;-47
2022/09/16 22:20:40;;;;;;;5.47;2.38;;;11.30;87.70;;;;;;5135690;28;20540;-46
2022/09/16 22:23:06;;;;;;;8.95;1.73;;;11.20;87.80;;;;;;5135810;28;20061;-46
2022/09/16 22:25:34;;;;;;;8.57;2.05;;;11.20;87.70;;;;;;5132642;28;20023;-46
2022/09/16 22:28:00;;;;;;;17.90;3.42;;;11.30;87.50;;;;;;5134134;28;20356;-48
2022/09/16 22:30:25;;;;;;;8.52;2.22;;;11.30;87.20;;;;;;5134604;28;20094;-46
2022/09/16 22:32:51;;;;;;;10.65;1.85;;;11.30;86.40;;;;;;5133773;28;20462;-46
2022/09/16 22:35:17;;;;;;;9.50;2.67;;;11.40;86.30;;;;;;5134108;28;20035;-45
2022/09/16 22:37:42;;;;;;;8.73;1.95;;;11.50;86.30;;;;;;5133658;28;20031;-46
2022/09/16 22:40:08;;;;;;;13.45;1.70;;;11.40;86.30;;;;;;5133684;28;20027;-47
2022/09/16 22:42:34;;;;;;;11.32;2.67;;;11.40;86.50;;;;;;5133387;28;20027;-46
2022/09/16 22:45:00;;;;;;;9.77;1.95;;;11.40;86.60;;;;;;5133568;28;20024;-46
2022/09/16 22:47:26;;;;;;;8.98;2.58;;;11.50;86.60;;;;;;5134409;28;20023;-46
2022/09/16 22:49:52;;;;;;;5.78;2.28;;;11.40;86.90;;;;;;5136506;27;20479;-46
2022/09/16 22:52:18;;;;;;;12.38;1.92;;;11.30;87.00;;;;;;5137617;27;20023;-46
2022/09/16 22:54:44;;;;;;;11.07;2.28;;;11.30;87.00;;;;;;5137861;27;20030;-47
2022/09/16 22:57:09;;;;;;;8.25;3.25;;;11.30;87.60;;;;;;5137552;27;20436;-46
2022/09/16 22:59:35;;;;;;;9.77;2.10;;;11.30;87.70;;;;;;5137498;27;20038;-47
2022/09/16 23:02:00;;;;;;;5.07;2.25;;;11.30;87.70;;;;;;5136844;27;20079;-46
2022/09/16 23:04:26;;;;;;;12.43;2.97;;;11.30;87.80;;;;;;5137117;27;20098;-46
2022/09/16 23:06:52;;;;;;;4.60;2.20;;;11.40;87.70;;;;;;5137148;27;20034;-46
2022/09/16 23:09:18;;;;;;;6.97;1.35;;;11.40;87.60;;;;;;5135729;27;20027;-46
2022/09/16 23:11:44;;;;;;;5.45;1.70;;;11.40;87.70;;;;;;5136980;27;20382;-47
2022/09/16 23:14:13;;;;;;;7.07;1.67;;;11.30;87.90;;;;;;5136938;27;20027;-49
2022/09/16 23:16:38;;;;;;;9.60;2.30;;;11.30;88.20;;;;;;5137130;27;20098;-46
2022/09/16 23:19:08;;;;;;;10.07;1.63;;;11.30;88.60;;;;;;5136924;27;20098;-47
2022/09/16 23:21:35;;;;;;;7.15;2.08;;;11.30;89.00;;;;;;5137009;27;20053;-49
2022/09/16 23:24:02;;;;;;;6.60;2.47;;;11.20;89.40;;;;;;5135531;27;20015;-47
2022/09/16 23:26:34;;;;;;;8.15;1.75;;;11.10;89.70;;;;;;5135418;27;20051;-46
2022/09/16 23:29:01;;;;;;;5.85;1.92;;;11.10;90.00;;;;;;5136655;27;20031;-47
2022/09/16 23:31:30;;;;;;;10.57;2.25;;;11.00;90.30;;;;;;5136602;27;20072;-48
2022/09/16 23:33:56;;;;;;;7.00;1.85;;;11.00;90.40;;;;;;5136485;27;20110;-47
2022/09/16 23:36:23;;;;;;;10.05;2.55;;;11.10;90.40;;;;;;5136699;27;20120;-46
2022/09/16 23:38:49;;;;;;;4.78;1.73;;;11.00;90.10;;;;;;5135507;27;20026;-51
2022/09/16 23:41:20;;;;;;;9.32;1.95;;;11.00;90.20;;;;;;5137236;27;20049;-47
2022/09/16 23:43:47;;;;;;;7.28;2.63;;;11.00;90.40;;;;;;5136768;27;20130;-47
2022/09/16 23:46:16;;;;;;;7.60;2.25;;;11.00;90.30;;;;;;5135522;27;20023;-47
2022/09/16 23:48:43;;;;;;;6.70;1.90;;;10.90;90.40;;;;;;5135675;27;20026;-49
2022/09/16 23:51:09;;;;;;;16.48;2.78;;;11.00;90.40;;;;;;5137287;27;20356;-48
2022/09/16 23:53:36;;;;;;;11.93;1.90;;;11.00;90.40;;;;;;5137237;27;20046;-47
2022/09/16 23:56:06;;;;;;;22.58;2.90;;;10.90;90.30;;;;;;5135231;27;20034;-49
2022/09/16 23:58:35;;;;;;;11.40;3.03;;;10.80;90.50;;;;;;5136511;27;20478;-48
